Historyczne dane pomiarowe

Dodano dane terminowe – wersja testowa.

Dane z okresu 1951-2019

Wersja bazy: 1.34 [2019-03-16, lista zmian], aktualizacja planowana na 2019-04-15

Dane meteo z obszaru Polski uzyskane na podstawie danych udostępnionych przez Instytut Meteorologii i Gospodarki Wodnej – Państwowy Instytut Badawczy.

 

Wybierz Datę:    

       

TemperaturaWilgotnośćWiatrCiśnienieOpadyŚniegCzas trwania zjawisk
 Stacja t tx tn tng RH VA  wxwx mslp ppp RRR   cm mm wxwxwxwxwxwxwx
1961-08-14 14.8 19.8 9.1- 76.8- 4.0 1.0---- 0.0------------
1961-08-13 12.2 16.7 10.5- 90.0- 5.3 3.3---- 3.5------------
1961-08-12 16.8 21.5 15.2- 92.3- 8.0 2.3---- 14.9------------
1961-08-11 19.2 24.3 17.6- 90.3- 6.3 3.3---- 1.6------------
1961-08-10 22.0 30.4 16.4- 85.0- 3.0 2.7---- 9.3------------
1961-08-09 21.3 24.8 16.5- 85.5- 6.7 2.0---- 2.5------------
1961-08-08 19.6 22.8 14.5- 81.3- 6.7 2.7---- 0.0------------
1961-08-07 19.0 26.1 16.8- 83.8- 7.7 2.0---- 4.2------------
1961-08-06 26.1 30.6 18.2- 52.0- 0.0 5.0---- 0.0------------
1961-08-05 20.5 25.4 14.0- 73.0- 2.7 3.3---- 0.0------------
1961-08-04 16.7 20.9 7.5- 65.0- 5.0 2.0---- 0.0------------
1961-08-03 13.6 18.7 10.8- 88.0- 5.3 1.0---- 1.9------------
1961-08-02 18.2 26.3 8.3- 76.8- 3.3 1.7---- 4.5------------
1961-08-01 14.8 22.2 10.8- 76.5- 2.7 2.7---- 0.0------------
1961-07-31 12.7 18.7 11.2- 86.3- 6.3 6.7---- 0.4------------
1961-07-30 12.2 14.6 8.8- 89.8- 8.0 3.7---- 9.8------------
1961-07-29 12.2 17.6 9.8- 84.5- 5.3 2.7---- 0.0------------
1961-07-28 17.9 23.8 15.2- 83.8- 6.3 3.7---- 25.2------------
1961-07-27 19.6 25.7 15.0- 77.8- 8.0 3.3---- 0.4------------
1961-07-26 18.5 24.3 7.6- 68.3- 0.7 1.7---- 0.0------------
1961-07-25 13.5 18.4 10.5- 78.3- 7.7 2.0---- 0.0------------
1961-07-24 13.4 17.7 10.5- 81.0- 7.7 2.7---- 0.1------------
1961-07-23 15.1 19.4 11.8- 76.0- 7.3 2.7---- 0.0------------
1961-07-22 15.0 19.8 11.0- 82.5- 8.0 2.7---- 0.0------------
1961-07-21 14.5 19.6 10.5- 80.8- 5.0 4.3---- 0.1------------
1961-07-20 13.9 18.7 9.2- 81.3- 4.7 2.3---- 3.8------------
1961-07-19 13.5 18.7 10.8- 91.0- 7.7 2.0---- 13.8------------
1961-07-18 13.9 20.0 11.0- 83.8- 5.0 1.7---- 1.1------------
1961-07-17 15.1 18.7 9.8- 69.8- 5.0 4.3---- 1.2------------
1961-07-16 16.1 22.2 13.0- 75.8- 3.0 3.0---- 0.0------------
1961-07-15 19.4 23.8 14.7- 65.5- 6.7 3.0---- 25.8------------
1961-07-14 16.3 20.5 13.2- 61.8- 6.7 4.3---- 0.0------------
1961-07-13 18.0 25.0 13.6- 81.5- 3.7 4.0---- 7.2------------
1961-07-12 22.7 27.3 14.4- 66.3- 0.7 3.0---- 0.0------------
1961-07-11 17.1 23.8 6.0- 79.0- 6.3 1.3---- 0.1------------
1961-07-10 13.6 19.0 9.2- 75.5- 6.3 3.0---- 0.0------------
1961-07-09 12.6 17.7 10.4- 89.8- 8.0 2.0---- 7.8------------
1961-07-08 15.3 21.2 6.5- 64.0- 0.7 0.7---- 0.0------------
1961-07-07 12.5 16.4 9.6- 76.0- 6.7 1.7---- 0.0------------
1961-07-06 13.2 17.4 7.0- 70.0- 6.3 6.0---- 0.0------------
1961-07-05 12.9 18.2 9.0- 66.0- 4.0 4.3---- 0.0------------
1961-07-04 20.0 28.4 16.0- 74.5- 4.3 2.0---- 1.6------------
1961-07-03 23.8 31.4 12.8- 61.5- 0.7 1.0---- 0.0------------
1961-07-02 21.0 29.3 12.7- 64.8- 0.0 0.3---- 0.0------------
1961-07-01 19.9 28.5 10.7- 70.3- 0.0 1.0---- 0.0------------
1961-06-30 17.3 24.8 9.0- 69.5- 0.0 1.3---- 0.0------------
1961-06-29 15.6 21.5 8.3- 72.3- 0.7 3.3---- 0.0------------
1961-06-28 14.4 20.2 12.9- 71.8- 3.3 6.0---- 0.0------------
1961-06-27 22.2 28.6 16.3- 81.0- 5.3 3.0---- 17.2------------
1961-06-26 19.9 27.1 16.6- 84.5- 3.7 2.0---- 10.6------------
1961-06-25 21.5 29.3 11.2- 58.5- 0.0 1.3---- 0.0------------
1961-06-24 17.9 24.8 10.0- 72.5- 0.3 2.7---- 0.0------------
1961-06-23 17.5 23.7 13.5- 76.0- 2.3 1.7---- 0.0------------
1961-06-22 21.0 26.3 8.2- 58.8- 4.7 6.7---- 6.1------------
1961-06-21 17.3 23.9 6.1- 63.3- 3.0 2.3---- 0.0------------
1961-06-20 14.0 19.2 7.6- 71.3- 0.7 2.3---- 0.0------------
1961-06-19 16.7 22.0 8.6- 80.5- 5.3 2.3---- 0.0------------
1961-06-18 19.9 27.0 8.5- 63.3- 0.0 1.7---- 0.0------------
1961-06-17 16.0 21.9 7.2- 69.3- 0.3 1.7---- 0.0------------
1961-06-16 13.4 18.9 5.6- 74.3- 0.7 2.0---- 0.0------------
437.4 ms

 

Źródłem pochodzenia danych jest Instytut Meteorologii i Gospodarki Wodnej – Państwowy Instytut Badawczy. Dane Instytutu Meteorologii i Gospodarki Wodnej – Państwowego Instytutu Badawczego zostały przetworzone.

Dane źródłowe można odnaleźć na stronie https://dane.imgw.pl